createdAt,value
2022-12-13T00:01:58.188Z,-2.11
2022-12-13T00:04:25.459Z,-2.15
2022-12-13T00:06:52.746Z,-2.19
2022-12-13T00:09:19.916Z,-2.18
2022-12-13T00:11:46.521Z,-2.17
2022-12-13T00:14:13.580Z,-2.16
2022-12-13T00:16:40.959Z,-2.15
2022-12-13T00:19:07.480Z,-2.15
2022-12-13T00:21:34.343Z,-2.13
2022-12-13T00:24:01.694Z,-2.10
2022-12-13T00:26:32.843Z,-2.07
2022-12-13T00:29:00.939Z,-2.05
2022-12-13T00:31:58.552Z,-2.03
2022-12-13T00:34:15.058Z,-2.01
2022-12-13T00:36:41.643Z,-2.00
2022-12-13T00:39:08.382Z,-1.99
2022-12-13T00:41:36.059Z,-2.00
2022-12-13T00:44:04.419Z,-1.99
2022-12-13T00:46:31.239Z,-1.99
2022-12-13T00:49:00.065Z,-1.98
2022-12-13T00:51:28.833Z,-2.00
2022-12-13T00:53:56.017Z,-2.02
2022-12-13T00:56:25.112Z,-2.05
2022-12-13T00:58:52.678Z,-2.04
2022-12-13T01:01:24.565Z,-2.05
2022-12-13T01:03:54.058Z,-2.06
2022-12-13T01:06:25.607Z,-2.07
2022-12-13T01:08:52.068Z,-2.09
2022-12-13T01:11:19.116Z,-2.11
2022-12-13T01:13:46.255Z,-2.11
2022-12-13T01:16:13.971Z,-2.11
2022-12-13T01:18:41.412Z,-2.12
2022-12-13T01:21:16.420Z,-2.14
2022-12-13T01:23:43.908Z,-2.14
2022-12-13T01:26:15.973Z,-2.14
2022-12-13T01:28:43.216Z,-2.16
2022-12-13T01:31:13.323Z,-2.16
2022-12-13T01:33:40.510Z,-2.14
2022-12-13T01:36:14.718Z,-2.13
2022-12-13T01:38:41.487Z,-2.13
2022-12-13T01:41:17.120Z,-2.14
2022-12-13T01:43:44.488Z,-2.15
2022-12-13T01:46:12.874Z,-2.14
2022-12-13T01:48:47.346Z,-2.16
2022-12-13T01:51:17.537Z,-2.17
2022-12-13T01:53:46.844Z,-2.18
2022-12-13T01:56:23.328Z,-2.21
2022-12-13T01:58:52.419Z,-2.24
2022-12-13T02:01:19.472Z,-2.26
2022-12-13T02:03:46.407Z,-2.27
2022-12-13T02:06:38.863Z,-2.30
2022-12-13T02:09:07.443Z,-2.33
2022-12-13T02:11:40.721Z,-2.35
2022-12-13T02:14:07.257Z,-2.35
2022-12-13T02:17:06.184Z,-2.37
2022-12-13T02:20:21.644Z,-2.41
2022-12-13T02:22:57.945Z,-2.45
2022-12-13T02:26:02.065Z,-2.50
2022-12-13T02:28:37.391Z,-2.53
2022-12-13T02:31:14.952Z,-2.57
2022-12-13T02:33:52.901Z,-2.60
2022-12-13T02:36:36.697Z,-2.63
2022-12-13T02:39:11.706Z,-2.66
2022-12-13T02:41:46.741Z,-2.67
2022-12-13T02:44:34.779Z,-2.68
2022-12-13T02:47:21.977Z,-2.70
2022-12-13T02:49:52.841Z,-2.72
2022-12-13T02:52:22.977Z,-2.72
2022-12-13T02:54:49.626Z,-2.73
2022-12-13T02:57:29.812Z,-2.75
2022-12-13T03:00:00.081Z,-2.78
2022-12-13T03:02:35.322Z,-2.80
2022-12-13T03:05:04.626Z,-2.82
2022-12-13T03:07:50.725Z,-2.83
2022-12-13T03:10:33.049Z,-2.83
2022-12-13T03:13:08.668Z,-2.83
2022-12-13T03:15:35.044Z,-2.84
2022-12-13T03:18:09.685Z,-2.84
2022-12-13T03:20:36.455Z,-2.85
2022-12-13T03:23:02.920Z,-2.86
2022-12-13T03:25:32.656Z,-2.84
2022-12-13T03:28:02.011Z,-2.83
2022-12-13T03:30:30.256Z,-2.81
2022-12-13T03:32:57.012Z,-2.79
2022-12-13T03:35:23.793Z,-2.76
2022-12-13T03:37:51.217Z,-2.73
2022-12-13T03:40:19.767Z,-2.72
2022-12-13T03:42:46.972Z,-2.69
2022-12-13T03:45:14.114Z,-2.68
2022-12-13T03:47:40.974Z,-2.67
2022-12-13T03:50:26.066Z,-2.67
2022-12-13T03:53:01.910Z,-2.69
2022-12-13T03:55:29.029Z,-2.70
2022-12-13T03:57:55.739Z,-2.71
2022-12-13T04:00:22.334Z,-2.71
2022-12-13T04:02:48.819Z,-2.72
2022-12-13T04:05:16.056Z,-2.75
2022-12-13T04:07:47.959Z,-2.77
2022-12-13T04:10:26.415Z,-2.79
2022-12-13T04:12:54.712Z,-2.81
2022-12-13T04:15:27.478Z,-2.82
2022-12-13T04:17:53.872Z,-2.83
2022-12-13T04:20:20.393Z,-2.84
2022-12-13T04:22:46.801Z,-2.84
2022-12-13T04:25:13.511Z,-2.83
2022-12-13T04:27:40.414Z,-2.82
2022-12-13T04:30:07.820Z,-2.81
2022-12-13T04:32:34.372Z,-2.82
2022-12-13T04:35:01.754Z,-2.82
2022-12-13T04:37:29.307Z,-2.80
2022-12-13T04:40:00.593Z,-2.80
2022-12-13T04:42:28.189Z,-2.80
2022-12-13T04:44:54.675Z,-2.82
2022-12-13T04:47:21.106Z,-2.84
2022-12-13T04:49:47.641Z,-2.85
2022-12-13T04:52:14.069Z,-2.86
2022-12-13T04:54:55.899Z,-2.87
2022-12-13T04:57:23.958Z,-2.89
2022-12-13T04:59:50.465Z,-2.90
2022-12-13T05:02:24.089Z,-2.93
2022-12-13T05:04:53.520Z,-2.96
2022-12-13T05:07:21.785Z,-2.98
2022-12-13T05:09:48.433Z,-3.03
2022-12-13T05:12:22.371Z,-3.05
2022-12-13T05:14:49.571Z,-3.08
2022-12-13T05:17:16.028Z,-3.11
2022-12-13T05:19:42.574Z,-3.14
2022-12-13T05:22:13.579Z,-3.18
2022-12-13T05:24:44.453Z,-3.24
2022-12-13T05:27:25.408Z,-3.28
2022-12-13T05:30:03.067Z,-3.33
2022-12-13T05:32:43.391Z,-3.41
2022-12-13T05:35:22.125Z,-3.50
2022-12-13T05:37:55.072Z,-3.57
2022-12-13T05:40:22.684Z,-3.66
2022-12-13T05:42:49.104Z,-3.75
2022-12-13T05:45:17.994Z,-3.82
2022-12-13T05:47:44.728Z,-3.89
2022-12-13T05:50:12.439Z,-3.96
2022-12-13T05:52:39.252Z,-4.01
2022-12-13T05:55:06.544Z,-4.06
2022-12-13T05:57:32.980Z,-4.15
2022-12-13T06:00:01.054Z,-4.23
2022-12-13T06:02:28.233Z,-4.27
2022-12-13T06:04:54.740Z,-4.28
2022-12-13T06:07:21.207Z,-4.34
2022-12-13T06:09:47.779Z,-4.43
2022-12-13T06:12:31.130Z,-4.52
2022-12-13T06:15:00.706Z,-4.62
2022-12-13T06:17:36.011Z,-4.72
2022-12-13T06:20:04.596Z,-4.84
2022-12-13T06:22:50.599Z,-5.01
2022-12-13T06:25:30.726Z,-5.16
2022-12-13T06:28:01.069Z,-5.30
2022-12-13T06:30:29.459Z,-5.39
2022-12-13T06:32:56.519Z,-5.48
2022-12-13T06:35:29.107Z,-5.58
2022-12-13T06:38:01.252Z,-5.71
2022-12-13T06:40:30.885Z,-5.84
2022-12-13T06:42:57.943Z,-5.93
2022-12-13T06:45:25.596Z,-5.98
2022-12-13T06:47:52.336Z,-6.00
2022-12-13T06:50:19.288Z,-5.94
2022-12-13T06:52:46.656Z,-5.80
2022-12-13T06:55:13.716Z,-5.66
2022-12-13T06:57:40.854Z,-5.63
2022-12-13T07:00:09.540Z,-5.63
2022-12-13T07:02:36.394Z,-5.61
2022-12-13T07:05:03.434Z,-5.60
2022-12-13T07:07:29.861Z,-5.55
2022-12-13T07:09:56.399Z,-5.51
2022-12-13T07:12:23.411Z,-5.44
2022-12-13T07:14:50.503Z,-5.40
2022-12-13T07:17:32.640Z,-5.33
2022-12-13T07:20:07.062Z,-5.26
2022-12-13T07:22:34.628Z,-5.22
2022-12-13T07:25:02.390Z,-5.16
2022-12-13T07:27:28.837Z,-5.10
2022-12-13T07:29:55.223Z,-5.01
2022-12-13T07:32:21.681Z,-4.88
2022-12-13T07:34:48.220Z,-4.76
2022-12-13T07:37:30.549Z,-4.65
2022-12-13T07:40:03.294Z,-4.52
2022-12-13T07:42:31.490Z,-4.39
2022-12-13T07:44:57.912Z,-4.26
2022-12-13T07:47:29.808Z,-4.19
2022-12-13T07:49:56.233Z,-4.12
2022-12-13T07:52:22.674Z,-4.05
2022-12-13T07:54:49.106Z,-3.95
2022-12-13T07:57:16.055Z,-3.86
2022-12-13T07:59:42.521Z,-3.81
2022-12-13T08:02:13.831Z,-3.77
2022-12-13T08:04:42.641Z,-3.73
2022-12-13T08:07:11.221Z,-3.64
2022-12-13T08:09:37.687Z,-3.55
2022-12-13T08:12:04.372Z,-3.48
2022-12-13T08:14:31.325Z,-3.41
2022-12-13T08:16:58.029Z,-3.36
2022-12-13T08:19:24.416Z,-3.32
2022-12-13T08:22:01.973Z,-3.28
2022-12-13T08:24:30.951Z,-3.18
2022-12-13T08:26:59.328Z,-3.08
2022-12-13T08:29:34.276Z,-2.94
2022-12-13T08:32:05.307Z,-2.82
2022-12-13T08:34:31.877Z,-2.74
2022-12-13T08:37:01.873Z,-2.64
2022-12-13T08:39:34.002Z,-2.53
2022-12-13T08:42:15.903Z,-2.45
2022-12-13T08:44:49.102Z,-2.56
2022-12-13T08:47:23.249Z,-2.65
2022-12-13T08:49:50.892Z,-2.71
2022-12-13T08:52:17.438Z,-2.70
2022-12-13T08:54:43.845Z,-2.70
2022-12-13T08:57:10.387Z,-2.59
2022-12-13T08:59:36.850Z,-2.50
2022-12-13T09:02:05.314Z,-2.43
2022-12-13T09:04:32.432Z,-2.42
2022-12-13T09:07:01.248Z,-2.46
2022-12-13T09:09:29.026Z,-2.51
2022-12-13T09:11:59.546Z,-2.55
2022-12-13T09:14:27.032Z,-2.56
2022-12-13T09:17:03.349Z,-2.50
2022-12-13T09:19:37.004Z,-2.36
2022-12-13T09:22:05.061Z,-2.17
2022-12-13T09:24:36.337Z,-1.87
2022-12-13T09:27:09.649Z,-1.49
2022-12-13T09:29:37.411Z,-1.17
2022-12-13T09:32:04.263Z,-0.80
2022-12-13T09:34:30.975Z,-0.39
2022-12-13T09:37:01.094Z,-0.14
2022-12-13T09:39:29.503Z,0.09
2022-12-13T09:42:01.069Z,0.48
2022-12-13T09:44:43.646Z,0.63
2022-12-13T09:47:27.415Z,0.60
2022-12-13T09:50:14.852Z,0.46
2022-12-13T09:52:44.249Z,0.63
2022-12-13T09:55:24.657Z,0.73
2022-12-13T09:57:52.384Z,0.67
2022-12-13T10:00:21.932Z,0.70
2022-12-13T10:02:51.803Z,0.80
2022-12-13T10:05:34.126Z,0.77
2022-12-13T10:08:16.704Z,0.89
2022-12-13T10:10:44.011Z,0.87
2022-12-13T10:13:19.745Z,0.85
2022-12-13T10:15:54.782Z,0.79
2022-12-13T10:18:35.055Z,0.69
2022-12-13T10:21:22.116Z,0.74
2022-12-13T10:26:39.431Z,0.67
2022-12-13T10:29:07.394Z,0.52
2022-12-13T10:31:46.132Z,0.48
2022-12-13T10:34:25.271Z,0.63
2022-12-13T10:36:52.099Z,0.76
2022-12-13T10:39:42.613Z,0.72
2022-12-13T10:42:23.634Z,0.74
2022-12-13T10:45:23.676Z,0.71
2022-12-13T10:47:51.066Z,0.61
2022-12-13T10:50:30.038Z,0.46
2022-12-13T10:52:59.316Z,0.25
2022-12-13T10:55:35.559Z,0.13
2022-12-13T10:58:05.288Z,0.14
2022-12-13T11:00:37.150Z,0.18
2022-12-13T11:03:04.684Z,0.04
2022-12-13T11:05:33.585Z,-0.23
2022-12-13T11:08:22.745Z,-0.37
2022-12-13T11:11:00.095Z,-0.41
2022-12-13T11:13:34.733Z,-0.42
2022-12-13T11:16:01.890Z,-0.56
2022-12-13T11:18:35.666Z,-0.68
2022-12-13T11:21:05.314Z,-0.75
2022-12-13T11:23:36.729Z,-0.78
2022-12-13T11:26:10.524Z,-0.80
2022-12-13T11:29:01.762Z,-0.82
2022-12-13T11:32:09.993Z,-0.78
2022-12-13T11:34:55.563Z,-0.68
2022-12-13T11:37:42.992Z,-0.57
2022-12-13T11:40:16.907Z,-0.34
2022-12-13T11:42:49.831Z,-0.21
2022-12-13T11:45:24.526Z,-0.09
2022-12-13T11:48:02.123Z,-0.16
2022-12-13T11:50:37.082Z,-0.16
2022-12-13T11:53:12.505Z,-0.08
2022-12-13T11:55:50.703Z,0.05
2022-12-13T11:59:01.121Z,0.21
2022-12-13T12:01:43.610Z,0.31
2022-12-13T12:04:30.299Z,0.25
2022-12-13T12:07:31.319Z,0.13
2022-12-13T12:10:03.349Z,-0.03
2022-12-13T12:12:35.527Z,-0.02
2022-12-13T12:15:16.254Z,-0.14
2022-12-13T12:17:43.848Z,-0.31
2022-12-13T12:20:23.154Z,-0.46
2022-12-13T12:23:00.103Z,-0.58
2022-12-13T12:25:45.246Z,-0.74
2022-12-13T12:28:44.608Z,-0.84
2022-12-13T12:31:20.102Z,-0.89
2022-12-13T12:34:02.317Z,-0.88
2022-12-13T12:36:37.596Z,-0.92
2022-12-13T12:39:26.342Z,-0.99
2022-12-13T12:42:56.498Z,-1.10
2022-12-13T12:45:56.397Z,-1.16
2022-12-13T12:49:02.921Z,-1.13
2022-12-13T12:51:48.236Z,-1.03
2022-12-13T12:54:42.431Z,-1.04
2022-12-13T12:57:22.273Z,-1.09
2022-12-13T13:00:19.466Z,-1.14
2022-12-13T13:02:51.483Z,-1.20
2022-12-13T13:05:28.674Z,-1.25
2022-12-13T13:08:04.520Z,-1.38
2022-12-13T13:10:32.009Z,-1.58
2022-12-13T13:13:12.373Z,-1.69
2022-12-13T13:15:39.656Z,-1.80
2022-12-13T13:18:45.955Z,-1.89
2022-12-13T13:21:24.423Z,-2.02
2022-12-13T13:24:09.265Z,-2.14
2022-12-13T13:26:38.702Z,-2.25
2022-12-13T13:29:27.919Z,-2.38
2022-12-13T13:32:02.094Z,-2.53
2022-12-13T13:34:30.410Z,-2.65
2022-12-13T13:36:58.042Z,-2.74
2022-12-13T13:39:33.592Z,-2.82
2022-12-13T13:42:32.262Z,-2.89
2022-12-13T13:45:19.991Z,-2.99
2022-12-13T13:48:15.759Z,-3.09
2022-12-13T13:50:46.575Z,-3.20
2022-12-13T13:53:55.425Z,-3.28
2022-12-13T13:56:30.541Z,-3.37
2022-12-13T13:59:05.709Z,-3.43
2022-12-13T14:01:53.784Z,-3.49
2022-12-13T14:04:29.138Z,-3.57
2022-12-13T14:07:40.703Z,-3.64
2022-12-13T14:10:25.322Z,-3.72
2022-12-13T14:13:09.913Z,-3.79
2022-12-13T14:15:59.771Z,-3.87
2022-12-13T14:18:57.760Z,-3.95
2022-12-13T14:21:47.474Z,-4.04
2022-12-13T14:24:42.174Z,-4.12
2022-12-13T14:27:25.329Z,-4.20
2022-12-13T14:29:58.184Z,-4.27
2022-12-13T14:32:29.249Z,-4.35
2022-12-13T14:34:57.723Z,-4.44
2022-12-13T14:37:35.570Z,-4.53
2022-12-13T14:40:03.424Z,-4.63
2022-12-13T14:42:32.611Z,-4.76
2022-12-13T14:45:15.700Z,-4.87
2022-12-13T14:47:43.189Z,-5.00
2022-12-13T14:50:14.964Z,-5.09
2022-12-13T14:52:43.096Z,-5.16
2022-12-13T14:55:34.053Z,-5.23
2022-12-13T14:58:02.674Z,-5.33
2022-12-13T15:00:31.109Z,-5.43
2022-12-13T15:03:00.746Z,-5.50
2022-12-13T15:05:37.611Z,-5.58
2022-12-13T15:08:10.285Z,-5.69
2022-12-13T15:10:40.928Z,-5.78
2022-12-13T15:13:23.669Z,-5.86
2022-12-13T15:16:00.108Z,-5.97
2022-12-13T15:18:28.015Z,-6.09
2022-12-13T15:20:56.590Z,-6.18
2022-12-13T15:23:32.381Z,-6.23
2022-12-13T15:26:28.260Z,-6.26
2022-12-13T15:29:10.160Z,-6.29
2022-12-13T15:31:38.346Z,-6.32
2022-12-13T15:34:30.572Z,-6.37
2022-12-13T15:37:29.208Z,-6.42
2022-12-13T15:40:05.643Z,-6.48
2022-12-13T15:42:35.177Z,-6.51
2022-12-13T15:45:05.090Z,-6.57
2022-12-13T15:47:32.584Z,-6.63
2022-12-13T15:50:01.652Z,-6.69
2022-12-13T15:52:35.118Z,-6.75
2022-12-13T15:55:07.692Z,-6.82
2022-12-13T15:57:49.328Z,-6.91
2022-12-13T16:00:16.072Z,-6.99
2022-12-13T16:03:10.022Z,-7.07
2022-12-13T16:05:40.203Z,-7.13
2022-12-13T16:08:18.128Z,-7.17
2022-12-13T16:10:49.826Z,-7.20
2022-12-13T16:13:29.749Z,-7.22
2022-12-13T16:16:09.314Z,-7.28
2022-12-13T16:18:53.400Z,-7.33
2022-12-13T16:21:19.838Z,-7.37
2022-12-13T16:23:48.557Z,-7.39
2022-12-13T16:26:21.525Z,-7.43
2022-12-13T16:28:47.908Z,-7.46
2022-12-13T16:31:19.098Z,-7.52
2022-12-13T16:33:45.650Z,-7.59
2022-12-13T16:36:13.011Z,-7.65
2022-12-13T16:38:39.552Z,-7.68
2022-12-13T16:41:08.594Z,-7.72
2022-12-13T16:43:40.252Z,-7.72
2022-12-13T16:47:15.082Z,-7.72
2022-12-13T16:48:54.479Z,-7.71
2022-12-13T16:51:21.942Z,-7.70
2022-12-13T16:53:49.098Z,-7.66
2022-12-13T16:56:15.838Z,-7.64
2022-12-13T16:58:49.407Z,-7.58
2022-12-13T17:01:19.516Z,-7.51
2022-12-13T17:03:46.515Z,-7.42
2022-12-13T17:06:14.869Z,-7.36
2022-12-13T17:08:41.332Z,-7.30
2022-12-13T17:11:09.131Z,-7.26
2022-12-13T17:13:37.383Z,-7.20
2022-12-13T17:16:07.609Z,-7.12
2022-12-13T17:18:34.162Z,-7.04
2022-12-13T17:21:06.804Z,-6.98
2022-12-13T17:23:33.882Z,-6.90
2022-12-13T17:26:05.131Z,-6.82
2022-12-13T17:28:31.541Z,-6.71
2022-12-13T17:31:16.429Z,-6.61
2022-12-13T17:33:43.904Z,-6.51
2022-12-13T17:36:12.487Z,-6.44
2022-12-13T17:38:43.631Z,-6.39
2022-12-13T17:41:10.172Z,-6.35
2022-12-13T17:43:37.028Z,-6.29
2022-12-13T17:46:13.521Z,-6.22
2022-12-13T17:48:41.472Z,-6.21
2022-12-13T17:51:11.083Z,-6.27
2022-12-13T17:53:42.633Z,-6.29
2022-12-13T17:56:10.024Z,-6.31
2022-12-13T17:58:36.519Z,-6.33
2022-12-13T18:01:14.985Z,-6.34
2022-12-13T18:03:42.731Z,-6.35
2022-12-13T18:06:09.894Z,-6.34
2022-12-13T18:08:38.632Z,-6.35
2022-12-13T18:13:55.716Z,-6.28
2022-12-13T18:16:24.753Z,-6.24
2022-12-13T18:18:55.991Z,-6.24
2022-12-13T18:21:24.238Z,-6.21
2022-12-13T18:23:55.747Z,-6.21
2022-12-13T18:26:24.459Z,-6.18
2022-12-13T18:28:52.207Z,-6.17
2022-12-13T18:31:22.240Z,-6.17
2022-12-13T18:33:50.350Z,-6.16
2022-12-13T18:36:18.431Z,-6.19
2022-12-13T18:38:45.482Z,-6.20
2022-12-13T18:41:14.406Z,-6.24
2022-12-13T18:43:42.548Z,-6.23
2022-12-13T18:46:10.173Z,-6.21
2022-12-13T18:48:37.370Z,-6.21
2022-12-13T18:51:07.554Z,-6.24
2022-12-13T18:53:35.193Z,-6.30
2022-12-13T18:56:11.617Z,-6.35
2022-12-13T18:58:43.187Z,-6.41
2022-12-13T19:01:12.028Z,-6.46
2022-12-13T19:03:39.616Z,-6.51
2022-12-13T19:06:07.538Z,-6.55
2022-12-13T19:08:34.663Z,-6.60
2022-12-13T19:11:02.232Z,-6.61
2022-12-13T19:13:30.021Z,-6.62
2022-12-13T19:15:58.715Z,-6.60
2022-12-13T19:18:25.529Z,-6.58
2022-12-13T19:20:53.805Z,-6.56
2022-12-13T19:23:21.571Z,-6.55
2022-12-13T19:25:48.738Z,-6.55
2022-12-13T19:28:18.095Z,-6.55
2022-12-13T19:30:46.721Z,-6.53
2022-12-13T19:33:16.057Z,-6.48
2022-12-13T19:35:43.993Z,-6.44
2022-12-13T19:38:11.045Z,-6.44
2022-12-13T19:40:42.619Z,-6.45
2022-12-13T19:43:10.177Z,-6.47
2022-12-13T19:45:36.917Z,-6.47
2022-12-13T19:48:04.024Z,-6.44
2022-12-13T19:50:30.807Z,-6.43
2022-12-13T19:52:57.963Z,-6.41
2022-12-13T19:55:24.771Z,-6.42
2022-12-13T19:57:51.451Z,-6.43
2022-12-13T20:00:18.195Z,-6.45
2022-12-13T20:02:44.629Z,-6.46
2022-12-13T20:05:11.540Z,-6.46
2022-12-13T20:07:38.095Z,-6.43
2022-12-13T20:10:05.995Z,-6.40
2022-12-13T20:12:37.221Z,-6.39
2022-12-13T20:15:08.394Z,-6.38
2022-12-13T20:17:35.751Z,-6.36
2022-12-13T20:20:03.001Z,-6.34
2022-12-13T20:22:29.741Z,-6.32
2022-12-13T20:24:56.377Z,-6.34
2022-12-13T20:27:23.022Z,-6.36
2022-12-13T20:29:49.663Z,-6.39
2022-12-13T20:32:17.129Z,-6.40
2022-12-13T20:34:44.075Z,-6.41
2022-12-13T20:37:10.716Z,-6.42
2022-12-13T20:39:37.359Z,-6.45
2022-12-13T20:42:03.900Z,-6.48
2022-12-13T20:44:30.631Z,-6.51
2022-12-13T20:46:57.377Z,-6.53
2022-12-13T20:49:24.033Z,-6.53
2022-12-13T20:51:50.675Z,-6.53
2022-12-13T20:54:17.417Z,-6.52
2022-12-13T20:56:43.962Z,-6.51
2022-12-13T20:59:12.959Z,-6.51
2022-12-13T21:01:41.490Z,-6.51
2022-12-13T21:04:10.128Z,-6.49
2022-12-13T21:06:38.945Z,-6.50
2022-12-13T21:09:06.587Z,-6.53
2022-12-13T21:11:36.076Z,-6.57
2022-12-13T21:14:09.085Z,-6.61
2022-12-13T21:16:40.978Z,-6.63
2022-12-13T21:19:09.989Z,-6.63
2022-12-13T21:21:37.309Z,-6.65
2022-12-13T21:24:04.157Z,-6.67
2022-12-13T21:26:35.184Z,-6.69
2022-12-13T21:29:05.911Z,-6.69
2022-12-13T21:31:32.750Z,-6.73
2022-12-13T21:34:00.643Z,-6.78
2022-12-13T21:36:32.127Z,-6.81
2022-12-13T21:39:00.597Z,-6.82
2022-12-13T21:41:27.936Z,-6.85
2022-12-13T21:43:55.212Z,-6.88
2022-12-13T21:46:25.977Z,-6.89
2022-12-13T21:48:57.590Z,-6.89
2022-12-13T21:51:26.010Z,-6.89
2022-12-13T21:53:53.636Z,-6.88
2022-12-13T21:56:23.074Z,-6.88
2022-12-13T21:58:49.501Z,-6.88
2022-12-13T22:01:15.996Z,-6.90
2022-12-13T22:03:42.497Z,-6.92
2022-12-13T22:06:09.242Z,-6.94
2022-12-13T22:08:35.783Z,-6.93
2022-12-13T22:11:02.160Z,-6.93
2022-12-13T22:13:28.871Z,-6.94
2022-12-13T22:15:55.306Z,-6.96
2022-12-13T22:18:22.015Z,-6.98
2022-12-13T22:20:58.633Z,-6.98
2022-12-13T22:23:25.171Z,-6.99
2022-12-13T22:25:51.590Z,-7.03
2022-12-13T22:28:18.050Z,-7.04
2022-12-13T22:30:44.586Z,-7.01
2022-12-13T22:33:11.037Z,-6.99
2022-12-13T22:35:38.060Z,-6.98
2022-12-13T22:38:04.721Z,-6.96
2022-12-13T22:40:31.106Z,-6.94
2022-12-13T22:42:57.592Z,-6.94
2022-12-13T22:45:24.135Z,-6.93
2022-12-13T22:47:50.568Z,-6.91
2022-12-13T22:50:17.215Z,-6.88
2022-12-13T22:52:43.635Z,-6.86
2022-12-13T22:55:10.192Z,-6.87
2022-12-13T22:57:36.620Z,-6.85
2022-12-13T23:00:05.645Z,-6.86
2022-12-13T23:02:32.053Z,-6.89
2022-12-13T23:04:58.618Z,-6.90
2022-12-13T23:07:25.148Z,-6.91
2022-12-13T23:09:51.686Z,-6.92
2022-12-13T23:12:18.124Z,-6.94
2022-12-13T23:14:44.565Z,-6.97
2022-12-13T23:17:11.141Z,-6.98
2022-12-13T23:19:50.260Z,-7.02
2022-12-13T23:22:22.136Z,-7.04
2022-12-13T23:24:49.567Z,-7.05
2022-12-13T23:27:16.623Z,-7.05
2022-12-13T23:29:43.162Z,-7.08
2022-12-13T23:32:09.616Z,-7.11
2022-12-13T23:34:36.052Z,-7.14
2022-12-13T23:37:02.457Z,-7.18
2022-12-13T23:39:28.914Z,-7.19
2022-12-13T23:41:55.454Z,-7.21
2022-12-13T23:44:22.029Z,-7.24
2022-12-13T23:46:49.142Z,-7.29
2022-12-13T23:49:16.845Z,-7.34
2022-12-13T23:51:43.438Z,-7.42
2022-12-13T23:54:11.030Z,-7.54
2022-12-13T23:56:37.429Z,-7.67
2022-12-13T23:59:03.846Z,-7.81
